Kezdőlap
METAR-TAF:

METAR-TAF

Repülőterek :

Kirksville Regional Airport

Kirksville, Missouri, Amerikai Egyesült Államok

földrajzi szélesség: 40-05-50N, földrajzi hosszúság: 092-32-36W, magasság: 294 m

Jelenlegi meteorológiai megfigyelések

A jelentés 46 perccel ezelõtt készült, 13:13 UTC
Kelet-északkeleti szél 7 kt
Hőmérséklet 3°C
Páratartalom 87%
Légköri nyomás 1025 hPa
Látótávolság: 4.8 km
Szakadozott felhőzet 700 lábon
Borult 1600 lábon
Párásság

METAR: KIRK 081313Z AUTO 07007KT 3SM BR BKN007 OVC016 03/01 A3027 RMK AO2 T00280011

Idő: 07:59 (13:59 UTC)


TAF: hiányzik

Meteorológiai megfigyelések és előrejelzések több, mint 4000 repülőtéren (METAR és TAF jelentéseket).

A térképen piros és sárga pontok jelzik az elérhető meteorológiai állomásokat.

Mozgassa az egeret a pont fölött, hogy megjelenjen az állomás neve.

Azután kattintson az időjárási megfigyelések és előrejelzések megtekintéséhez.

A térkép megváltoztatása: kattintson a fekete keresztel jelölt zöld gombra ráközelítéshez, a vonallal jelölt zöld gombra távolításhoz, vagy a zöld nyilakra a szomszédos térképek eléréséhez.


METAR-TAF: